createdAt,value
2019-04-16T00:03:10.228Z," 9.43"
2019-04-16T00:08:19.321Z," 9.23"
2019-04-16T00:13:05.274Z," 9.32"
2019-04-16T00:18:00.878Z," 9.14"
2019-04-16T00:22:56.702Z," 9.19"
2019-04-16T00:27:52.615Z," 9.23"
2019-04-16T00:32:48.965Z," 9.02"
2019-04-16T00:37:45.721Z," 8.95"
2019-04-16T00:42:41.146Z," 9.00"
2019-04-16T00:47:36.660Z," 8.91"
2019-04-16T00:52:36.695Z," 8.94"
2019-04-16T00:57:31.933Z," 8.84"
2019-04-16T01:02:27.702Z," 8.76"
2019-04-16T01:07:23.980Z," 8.78"
2019-04-16T01:12:19.842Z," 8.74"
2019-04-16T01:17:15.486Z," 8.55"
2019-04-16T01:22:15.809Z," 8.76"
2019-04-16T01:27:11.495Z," 8.53"
2019-04-16T01:32:10.327Z," 8.51"
2019-04-16T01:37:06.675Z," 8.46"
2019-04-16T01:42:01.875Z," 8.52"
2019-04-16T01:46:57.801Z," 8.48"
2019-04-16T01:51:53.749Z," 8.31"
2019-04-16T01:56:49.378Z," 8.36"
2019-04-16T02:01:45.509Z," 8.36"
2019-04-16T02:06:41.809Z," 8.23"
2019-04-16T02:11:38.850Z," 8.27"
2019-04-16T02:16:35.906Z," 8.09"
2019-04-16T02:21:31.261Z," 8.13"
2019-04-16T02:26:26.958Z," 8.20"
2019-04-16T02:31:23.003Z," 8.18"
2019-04-16T02:36:18.961Z," 8.08"
2019-04-16T02:41:14.659Z," 8.24"
2019-04-16T02:46:11.400Z," 8.12"
2019-04-16T02:51:08.547Z," 8.24"
2019-04-16T02:56:03.850Z," 8.12"
2019-04-16T03:00:59.612Z," 8.09"
2019-04-16T03:05:55.477Z," 8.08"
2019-04-16T03:10:52.181Z," 8.10"
2019-04-16T03:15:47.608Z," 8.15"
2019-04-16T03:20:44.166Z," 8.03"
2019-04-16T03:25:41.344Z," 7.98"
2019-04-16T03:30:42.444Z," 8.12"
2019-04-16T03:35:38.174Z," 7.85"
2019-04-16T03:40:34.085Z," 7.73"
2019-04-16T03:45:30.811Z," 7.82"
2019-04-16T03:50:31.021Z," 7.76"
2019-04-16T03:55:26.557Z," 7.70"
2019-04-16T04:00:22.869Z," 7.53"
2019-04-16T04:05:18.209Z," 7.53"
2019-04-16T04:10:13.853Z," 7.25"
2019-04-16T04:15:09.510Z," 7.35"
2019-04-16T04:20:05.348Z," 7.14"
2019-04-16T04:25:04.347Z," 7.21"
2019-04-16T04:29:59.626Z," 7.15"
2019-04-16T04:34:55.592Z," 7.07"
2019-04-16T04:39:51.385Z," 6.97"
2019-04-16T04:44:47.355Z," 6.92"
2019-04-16T04:49:44.073Z," 6.97"
2019-04-16T04:54:40.412Z," 6.89"
2019-04-16T04:59:36.881Z," 6.82"
2019-04-16T05:04:33.848Z," 6.84"
2019-04-16T05:09:29.678Z," 6.78"
2019-04-16T05:14:27.363Z," 6.84"
2019-04-16T05:19:23.361Z," 6.78"
2019-04-16T05:24:18.923Z," 6.84"
2019-04-16T05:29:17.365Z," 6.93"
2019-04-16T05:34:17.193Z," 6.97"
2019-04-16T05:39:12.701Z," 7.06"
2019-04-16T05:44:08.553Z," 7.13"
2019-04-16T05:49:04.327Z," 7.24"
2019-04-16T05:54:01.245Z," 7.25"
2019-04-16T05:58:59.665Z," 7.25"
2019-04-16T06:03:56.145Z," 7.50"
2019-04-16T06:08:52.271Z," 7.73"
2019-04-16T06:13:48.352Z," 7.87"
2019-04-16T06:18:43.888Z," 8.09"
2019-04-16T06:23:40.323Z," 8.48"
2019-04-16T06:28:36.675Z," 8.41"
2019-04-16T06:33:32.606Z," 8.42"
2019-04-16T06:38:29.575Z," 8.48"
2019-04-16T06:43:27.253Z," 8.53"
2019-04-16T06:48:23.052Z," 8.73"
2019-04-16T06:53:19.874Z," 8.94"
2019-04-16T06:58:18.748Z," 9.28"
2019-04-16T07:03:15.680Z," 9.32"
2019-04-16T07:08:11.378Z," 9.47"
2019-04-16T07:13:11.168Z," 9.54"
2019-04-16T07:18:06.308Z," 9.73"
2019-04-16T07:23:02.057Z,10.05
2019-04-16T07:27:58.992Z,10.67
2019-04-16T07:32:54.758Z,10.78
2019-04-16T07:37:51.138Z,10.84
2019-04-16T07:43:46.966Z,10.87
2019-04-16T07:47:48.323Z,11.18
2019-04-16T07:52:45.942Z,11.41
2019-04-16T07:57:41.932Z,11.70
2019-04-16T08:02:38.928Z,12.49
2019-04-16T08:07:35.795Z,13.08
2019-04-16T08:12:33.673Z,13.90
2019-04-16T08:17:37.005Z,14.04
2019-04-16T08:22:32.526Z,14.03
2019-04-16T08:27:29.748Z,14.18
2019-04-16T08:32:26.045Z,13.87
2019-04-16T08:37:21.424Z,14.11
2019-04-16T08:42:16.857Z,14.12
2019-04-16T08:47:14.541Z,14.33
2019-04-16T08:52:11.040Z,13.67
2019-04-16T08:57:05.969Z,13.77
2019-04-16T09:02:01.292Z,13.90
2019-04-16T09:07:10.243Z,14.11
2019-04-16T09:11:56.859Z,14.22
2019-04-16T09:16:52.564Z,13.81
2019-04-16T09:21:48.686Z,13.75
2019-04-16T09:26:44.432Z,13.71
2019-04-16T09:31:40.423Z,13.81
2019-04-16T09:36:36.299Z,13.96
2019-04-16T09:41:32.267Z,14.35
2019-04-16T09:46:49.865Z,14.65
2019-04-16T09:51:28.633Z,14.53
2019-04-16T09:56:28.980Z,14.96
2019-04-16T10:01:24.173Z,14.99
2019-04-16T10:06:20.375Z,15.24
2019-04-16T10:11:19.255Z,15.82
2019-04-16T10:16:15.979Z,15.95
2019-04-16T10:21:12.925Z,16.51
2019-04-16T10:26:10.838Z,17.02
2019-04-16T10:31:07.285Z,16.89
2019-04-16T10:36:04.912Z,16.79
2019-04-16T10:41:01.085Z,16.79
2019-04-16T10:45:58.003Z,17.01
2019-04-16T10:50:53.836Z,16.96
2019-04-16T10:55:50.984Z,17.41
2019-04-16T11:00:47.246Z,16.96
2019-04-16T11:05:43.214Z,17.65
2019-04-16T11:10:39.801Z,17.51
2019-04-16T11:15:37.099Z,17.65
2019-04-16T11:20:34.288Z,17.72
2019-04-16T11:25:30.121Z,18.03
2019-04-16T11:30:27.489Z,17.95
2019-04-16T11:35:23.417Z,18.04
2019-04-16T11:40:20.045Z,18.25
2019-04-16T11:45:16.479Z,17.92
2019-04-16T11:50:12.695Z,18.41
2019-04-16T11:55:09.082Z,18.88
2019-04-16T12:00:07.812Z,18.23
2019-04-16T12:05:04.495Z,18.73
2019-04-16T12:09:59.744Z,19.11
2019-04-16T12:14:54.870Z,18.59
2019-04-16T12:19:49.769Z,18.70
2019-04-16T12:24:45.752Z,18.47
2019-04-16T12:29:42.554Z,18.56
2019-04-16T12:34:39.108Z,18.65
2019-04-16T12:39:36.048Z,18.88
2019-04-16T12:44:44.444Z,19.14
2019-04-16T12:49:32.023Z,18.90
2019-04-16T12:54:28.459Z,18.89
2019-04-16T12:59:23.982Z,18.77
2019-04-16T13:04:19.203Z,18.96
2019-04-16T13:09:16.287Z,18.89
2019-04-16T13:14:12.788Z,18.84
2019-04-16T13:19:09.239Z,19.04
2019-04-16T13:24:04.461Z,19.02
2019-04-16T13:29:00.645Z,19.15
2019-04-16T13:33:56.466Z,18.93
2019-04-16T13:38:52.240Z,18.98
2019-04-16T13:43:48.265Z,19.00
2019-04-16T13:48:44.025Z,19.11
2019-04-16T13:53:39.826Z,18.80
2019-04-16T13:58:35.579Z,18.93
2019-04-16T14:03:31.607Z,19.14
2019-04-16T14:08:28.794Z,19.62
2019-04-16T14:13:25.337Z,19.49
2019-04-16T14:18:22.592Z,19.37
2019-04-16T14:23:18.390Z,19.56
2019-04-16T14:28:17.894Z,19.15
2019-04-16T14:33:13.024Z,19.21
2019-04-16T14:38:08.759Z,19.18
2019-04-16T14:43:06.290Z,19.14
2019-04-16T14:48:08.003Z,19.15
2019-04-16T14:53:01.069Z,18.99
2019-04-16T14:57:56.742Z,18.98
2019-04-16T15:02:52.239Z,18.89
2019-04-16T15:07:47.925Z,19.02
2019-04-16T15:12:44.154Z,18.88
2019-04-16T15:17:40.727Z,18.80
2019-04-16T15:22:37.271Z,18.78
2019-04-16T15:27:32.679Z,18.74
2019-04-16T15:32:28.399Z,18.73
2019-04-16T15:37:25.648Z,18.90
2019-04-16T15:42:21.967Z,18.75
2019-04-16T15:47:18.740Z,18.81
2019-04-16T15:52:15.408Z,18.73
2019-04-16T15:57:10.828Z,18.77
2019-04-16T16:02:06.968Z,18.84
2019-04-16T16:07:02.796Z,18.74
2019-04-16T16:11:58.759Z,18.77
2019-04-16T16:16:54.620Z,18.73
2019-04-16T16:21:51.433Z,18.74
2019-04-16T16:26:46.902Z,18.68
2019-04-16T16:31:42.662Z,18.62
2019-04-16T16:36:40.688Z,18.56
2019-04-16T16:41:36.086Z,18.60
2019-04-16T16:46:31.888Z,18.43
2019-04-16T16:51:28.687Z,18.50
2019-04-16T16:56:25.954Z,18.26
2019-04-16T17:01:21.305Z,18.28
2019-04-16T17:06:17.708Z,18.33
2019-04-16T17:11:16.592Z,18.18
2019-04-16T17:16:14.457Z,17.98
2019-04-16T17:21:09.729Z,17.86
2019-04-16T17:26:05.550Z,17.80
2019-04-16T17:31:01.321Z,17.83
2019-04-16T17:35:57.985Z,17.63
2019-04-16T17:40:58.123Z,17.54
2019-04-16T17:45:52.527Z,17.51
2019-04-16T17:50:51.419Z,17.54
2019-04-16T17:55:47.779Z,17.45
2019-04-16T18:00:43.978Z,17.29
2019-04-16T18:05:39.393Z,17.12
2019-04-16T18:10:35.190Z,17.04
2019-04-16T18:15:31.053Z,16.89
2019-04-16T18:20:26.636Z,16.78
2019-04-16T18:25:22.613Z,16.75
2019-04-16T18:30:18.275Z,16.65
2019-04-16T18:35:16.426Z,16.60
2019-04-16T18:40:11.859Z,16.41
2019-04-16T18:45:07.671Z,16.29
2019-04-16T18:50:03.938Z,16.21
2019-04-16T18:54:59.695Z,16.09
2019-04-16T18:59:55.151Z,15.97
2019-04-16T19:04:51.150Z,16.01
2019-04-16T19:09:47.437Z,15.80
2019-04-16T19:14:46.998Z,15.77
2019-04-16T19:19:44.810Z,15.79
2019-04-16T19:24:40.035Z,15.70
2019-04-16T19:29:36.698Z,15.62
2019-04-16T19:34:32.203Z,15.40
2019-04-16T19:39:29.009Z,15.33
2019-04-16T19:44:24.442Z,15.18
2019-04-16T19:49:20.198Z,15.11
2019-04-16T19:54:17.263Z,15.03
2019-04-16T19:59:12.770Z,15.06
2019-04-16T20:04:10.739Z,14.99
2019-04-16T20:09:06.293Z,14.88
2019-04-16T20:14:03.510Z,14.72
2019-04-16T20:19:00.311Z,14.65
2019-04-16T20:23:55.645Z,14.45
2019-04-16T20:28:51.598Z,14.44
2019-04-16T20:33:47.363Z,14.43
2019-04-16T20:38:44.478Z,14.29
2019-04-16T20:43:39.887Z,14.22
2019-04-16T20:48:35.536Z,14.23
2019-04-16T20:53:31.337Z,14.07
2019-04-16T20:58:30.658Z,13.85
2019-04-16T21:03:30.804Z,13.71
2019-04-16T21:08:26.707Z,13.75
2019-04-16T21:13:22.166Z,13.52
2019-04-16T21:18:19.031Z,13.59
2019-04-16T21:23:16.211Z,13.56
2019-04-16T21:28:11.818Z,13.31
2019-04-16T21:33:07.552Z,13.16
2019-04-16T21:38:03.966Z,13.19
2019-04-16T21:42:59.808Z,13.04
2019-04-16T21:47:57.056Z,13.20
2019-04-16T21:52:55.575Z,13.05
2019-04-16T21:57:52.186Z,12.87
2019-04-16T22:02:47.582Z,12.83
2019-04-16T22:07:44.000Z,12.75
2019-04-16T22:12:39.611Z,12.76
2019-04-16T22:17:36.673Z,12.90
2019-04-16T22:22:32.758Z,12.87
2019-04-16T22:27:28.623Z,13.03
2019-04-16T22:32:27.072Z,12.95
2019-04-16T22:37:24.274Z,12.90
2019-04-16T22:42:20.450Z,12.91
2019-04-16T22:47:16.204Z,12.68
2019-04-16T22:52:13.200Z,12.50
2019-04-16T22:57:08.782Z,12.40
2019-04-16T23:02:04.750Z,12.32
2019-04-16T23:07:00.253Z,12.15
2019-04-16T23:11:57.928Z,12.15
2019-04-16T23:16:54.103Z,12.13
2019-04-16T23:21:51.071Z,12.06
2019-04-16T23:26:46.583Z,12.13
2019-04-16T23:31:42.272Z,12.25
2019-04-16T23:36:38.027Z,12.07
2019-04-16T23:41:34.562Z,11.91
2019-04-16T23:46:31.317Z,12.04
2019-04-16T23:51:29.122Z,11.90
2019-04-16T23:56:24.509Z,11.77
